Time;durP1;ratioP1;P1;durP2;ratioP2;P2;SDS_P1;SDS_P2;PMS_P1;PMS_P2;Temp;Humidity;BMP_temperature;BMP_pressure;BME280_temperature;BME280_humidity;BME280_pressure;Samples;Min_cycle;Max_cycle;Signal;HPM_P1;HPM_P2
2022/04/19 00:00:57;;;;;;;28.58;23.10;;;;;;;4.46;100.00;98541.50;2050091;29;20653;-65
2022/04/19 00:02:01;;;;;;;32.10;22.90;;;;;;;4.48;100.00;98546.53;2049199;29;20236;-66
2022/04/19 00:03:03;;;;;;;29.35;23.98;;;;;;;4.43;100.00;98535.97;2041405;29;20191;-65
2022/04/19 00:04:05;;;;;;;28.17;24.23;;;;;;;4.40;100.00;98537.28;2049275;28;20273;-65
2022/04/19 00:05:09;;;;;;;29.40;23.85;;;;;;;4.37;100.00;98537.06;2049251;29;20202;-65
2022/04/19 00:06:10;;;;;;;31.90;24.40;;;;;;;4.35;100.00;98536.53;2043209;29;20648;-65
2022/04/19 00:07:11;;;;;;;31.25;23.95;;;;;;;4.34;100.00;98538.34;2049431;29;20645;-65
2022/04/19 00:08:18;;;;;;;28.83;23.53;;;;;;;4.33;100.00;98547.34;2049994;28;20595;-65
2022/04/19 00:09:20;;;;;;;28.27;24.58;;;;;;;4.30;100.00;98539.97;2057263;28;20445;-66
2022/04/19 00:10:23;;;;;;;27.85;23.88;;;;;;;4.28;100.00;98534.16;2057293;28;20194;-66
2022/04/19 00:11:26;;;;;;;31.50;24.00;;;;;;;4.29;100.00;98533.09;2049144;29;20233;-65
2022/04/19 00:12:27;;;;;;;27.00;22.85;;;;;;;4.30;100.00;98541.81;2049458;29;20209;-65
2022/04/19 00:13:29;;;;;;;32.97;23.80;;;;;;;4.27;100.00;98535.22;2049893;29;20190;-66
2022/04/19 00:14:33;;;;;;;28.52;23.23;;;;;;;4.27;100.00;98539.72;2049561;29;20202;-66
2022/04/19 00:15:38;;;;;;;31.48;24.15;;;;;;;4.28;100.00;98536.00;2049366;29;20194;-67
2022/04/19 00:16:46;;;;;;;29.60;24.17;;;;;;;4.26;100.00;98538.94;2049268;29;20236;-65
2022/04/19 00:17:48;;;;;;;30.10;24.00;;;;;;;4.23;100.00;98526.25;2049412;29;20183;-66
2022/04/19 00:18:49;;;;;;;26.17;23.38;;;;;;;4.23;100.00;98529.69;2049911;28;20578;-66
2022/04/19 00:19:50;;;;;;;27.90;23.63;;;;;;;4.22;100.00;98524.66;2049851;29;20208;-66
2022/04/19 00:20:51;;;;;;;29.45;24.33;;;;;;;4.17;100.00;98527.31;2049188;29;20210;-66
2022/04/19 00:21:54;;;;;;;27.17;23.23;;;;;;;4.17;100.00;98529.94;2048815;28;20281;-66
2022/04/19 00:22:58;;;;;;;27.70;23.33;;;;;;;4.16;100.00;98529.16;2049239;28;20301;-66
2022/04/19 00:24:00;;;;;;;28.10;23.60;;;;;;;4.15;100.00;98519.66;2057405;28;20671;-66
2022/04/19 00:25:03;;;;;;;27.75;23.98;;;;;;;4.14;100.00;98527.84;2057181;28;20339;-66
2022/04/19 00:26:04;;;;;;;29.40;24.35;;;;;;;4.13;100.00;98521.00;2057271;28;20198;-66
2022/04/19 00:27:08;;;;;;;31.65;25.42;;;;;;;4.11;100.00;98525.75;2057848;28;20248;-66
2022/04/19 00:28:12;;;;;;;29.63;24.85;;;;;;;4.09;100.00;98520.75;2057116;28;20193;-66
2022/04/19 00:29:14;;;;;;;26.48;22.27;;;;;;;4.08;100.00;98515.72;2049953;28;20202;-66
2022/04/19 00:30:16;;;;;;;29.57;24.03;;;;;;;4.06;100.00;98521.25;2057458;28;20193;-65
2022/04/19 00:31:17;;;;;;;26.30;23.52;;;;;;;4.06;100.00;98521.25;2057053;28;20221;-66
2022/04/19 00:32:18;;;;;;;27.77;22.43;;;;;;;4.06;100.00;98520.47;2057267;28;20191;-66
2022/04/19 00:33:20;;;;;;;30.13;23.40;;;;;;;4.05;100.00;98513.59;2057129;28;20205;-66
2022/04/19 00:34:23;;;;;;;32.75;23.63;;;;;;;4.06;100.00;98512.56;2049281;28;20225;-67
2022/04/19 00:35:26;;;;;;;29.13;23.55;;;;;;;4.05;100.00;98503.84;2057439;28;20554;-66
2022/04/19 00:36:28;;;;;;;28.40;23.77;;;;;;;4.03;100.00;98500.69;2052831;28;20225;-66
2022/04/19 00:37:33;;;;;;;34.60;23.77;;;;;;;4.03;100.00;98503.31;2049915;28;20266;-66
2022/04/19 00:38:33;;;;;;;31.13;23.77;;;;;;;4.03;100.00;98499.91;2048763;29;20292;-66
2022/04/19 00:39:35;;;;;;;31.93;23.47;;;;;;;4.03;100.00;98508.59;2049234;29;20205;-65
2022/04/19 00:40:37;;;;;;;27.42;22.60;;;;;;;4.02;100.00;98503.59;2049179;29;20198;-65
2022/04/19 00:41:39;;;;;;;28.17;22.80;;;;;;;4.03;100.00;98502.53;2049264;29;20179;-65
2022/04/19 00:42:40;;;;;;;29.40;23.45;;;;;;;4.01;100.00;98507.28;2049131;29;20668;-66
2022/04/19 00:43:42;;;;;;;28.07;23.47;;;;;;;4.01;100.00;98504.66;2049363;29;20648;-66
2022/04/19 00:44:44;;;;;;;31.95;23.90;;;;;;;4.02;100.00;98511.50;2049766;28;20205;-66
2022/04/19 00:45:46;;;;;;;30.17;24.27;;;;;;;4.00;100.00;98503.03;2049106;29;20198;-66
2022/04/19 00:46:48;;;;;;;30.50;24.42;;;;;;;3.98;100.00;98504.09;2049455;29;20277;-66
2022/04/19 00:47:50;;;;;;;34.30;24.60;;;;;;;4.00;100.00;98506.50;2049070;29;20687;-66
2022/04/19 00:48:53;;;;;;;35.03;25.92;;;;;;;3.99;100.00;98502.25;2049211;29;20194;-66
2022/04/19 00:49:57;;;;;;;35.65;25.95;;;;;;;4.00;100.00;98505.69;2049013;29;20620;-66
2022/04/19 00:50:58;;;;;;;32.78;25.00;;;;;;;3.99;100.00;98502.25;2040249;28;20221;-66
2022/04/19 00:52:00;;;;;;;31.20;25.67;;;;;;;3.98;100.00;98504.09;2041238;29;20298;-65
2022/04/19 00:53:02;;;;;;;35.58;25.40;;;;;;;3.96;100.00;98498.31;2041353;29;20222;-65
2022/04/19 00:54:04;;;;;;;32.20;25.20;;;;;;;3.95;100.00;98491.47;2041360;29;20203;-66
2022/04/19 00:55:08;;;;;;;34.70;25.75;;;;;;;3.96;100.00;98492.25;2049304;29;20190;-66
2022/04/19 00:56:17;;;;;;;30.88;25.83;;;;;;;3.97;100.00;98505.16;2049217;29;20679;-66
2022/04/19 00:57:20;;;;;;;30.58;25.33;;;;;;;3.96;100.00;98500.16;2049287;29;20181;-66
2022/04/19 00:58:24;;;;;;;33.42;25.45;;;;;;;3.96;100.00;98502.81;2049126;29;20229;-65
2022/04/19 00:59:25;;;;;;;36.17;25.83;;;;;;;3.95;100.00;98499.38;2057375;28;20206;-66
2022/04/19 01:00:27;;;;;;;32.57;25.97;;;;;;;3.96;100.00;98500.94;2057065;28;20190;-65
2022/04/19 01:01:50;;;;;;;32.63;26.80;;;;;;;3.95;100.00;98507.28;2049086;28;20707;-66
2022/04/19 01:02:55;;;;;;;32.85;25.80;;;;;;;3.93;100.00;98498.84;2056996;28;20616;-66
2022/04/19 01:03:58;;;;;;;32.83;25.25;;;;;;;3.96;100.00;98500.94;2049018;29;20195;-66
2022/04/19 01:05:01;;;;;;;34.38;24.52;;;;;;;3.98;100.00;98500.69;2041586;29;20227;-66
2022/04/19 01:06:04;;;;;;;32.55;24.77;;;;;;;3.96;100.00;98490.41;2048493;28;20209;-66
2022/04/19 01:07:06;;;;;;;31.50;24.63;;;;;;;3.97;100.00;98489.34;2041271;29;20285;-66
2022/04/19 01:08:07;;;;;;;32.03;26.05;;;;;;;3.97;100.00;98499.88;2041086;29;20283;-66
2022/04/19 01:09:12;;;;;;;37.85;26.48;;;;;;;3.97;100.00;98491.19;2041487;29;20199;-66
2022/04/19 01:10:13;;;;;;;35.92;24.98;;;;;;;3.97;100.00;98488.53;2040880;29;20608;-65
2022/04/19 01:14:03;;;;;;;33.85;26.17;;;;;;;4.02;100.00;98477.19;2043553;29;20187;-66
2022/04/19 01:15:06;;;;;;;34.22;26.17;;;;;;;4.01;100.00;98476.41;2041013;29;20199;-65
2022/04/19 01:16:20;;;;;;;35.38;25.80;;;;;;;4.00;100.00;98480.09;2049418;28;20221;-65
2022/04/19 01:17:24;;;;;;;32.88;25.38;;;;;;;3.99;100.00;98478.50;2042813;29;20779;-66
2022/04/19 01:18:27;;;;;;;33.45;25.17;;;;;;;3.98;100.00;98471.66;2042867;29;20203;-65
2022/04/19 01:19:34;;;;;;;33.97;24.77;;;;;;;3.95;100.00;98477.47;2050467;29;20198;-66
2022/04/19 01:20:37;;;;;;;36.17;25.60;;;;;;;3.95;100.00;98478.25;2042848;29;20195;-65
2022/04/19 01:21:44;;;;;;;35.65;25.65;;;;;;;3.96;100.00;98466.63;2042218;29;20283;-66
2022/04/19 01:22:49;;;;;;;35.70;25.52;;;;;;;3.94;100.00;98458.22;2043154;29;20199;-65
2022/04/19 01:23:53;;;;;;;37.00;25.63;;;;;;;3.96;100.00;98464.00;2043184;29;20207;-65
2022/04/19 01:24:57;;;;;;;36.38;25.73;;;;;;;4.01;100.00;98465.06;2050705;28;20573;-66
2022/04/19 01:26:00;;;;;;;38.70;27.20;;;;;;;3.99;100.00;98465.31;2050418;29;20703;-65
2022/04/19 01:27:05;;;;;;;33.15;25.52;;;;;;;3.98;100.00;98461.88;2042889;29;20278;-66
2022/04/19 01:28:06;;;;;;;33.90;25.40;;;;;;;3.96;100.00;98460.56;2042914;29;20608;-66
2022/04/19 01:29:09;;;;;;;36.33;26.42;;;;;;;3.97;100.00;98462.16;2042504;29;20194;-65
2022/04/19 01:30:10;;;;;;;41.13;26.65;;;;;;;3.95;100.00;98459.00;2042509;29;20293;-66
2022/04/19 01:31:15;;;;;;;39.33;26.92;;;;;;;3.94;100.00;98458.22;2042512;29;20325;-66
2022/04/19 01:32:23;;;;;;;37.13;26.63;;;;;;;3.94;100.00;98460.84;2043556;29;20246;-66
2022/04/19 01:33:27;;;;;;;37.97;27.27;;;;;;;3.93;100.00;98459.28;2042661;29;20670;-66
2022/04/19 01:34:29;;;;;;;38.42;28.50;;;;;;;3.93;100.00;98451.34;2050333;29;20198;-66
2022/04/19 01:35:34;;;;;;;38.88;28.70;;;;;;;3.91;100.00;98460.59;2050595;29;20240;-66
2022/04/19 01:36:35;;;;;;;39.45;27.95;;;;;;;3.89;100.00;98458.19;2050141;28;20234;-66
2022/04/19 01:37:40;;;;;;;37.47;27.10;;;;;;;3.92;100.00;98456.91;2050345;29;20221;-65
2022/04/19 01:38:41;;;;;;;43.00;28.83;;;;;;;3.89;100.00;98457.41;2042929;29;20752;-65
2022/04/19 01:41:09;;;;;;;38.78;28.00;;;;;;;3.88;100.00;98455.84;2050336;29;20581;-66
2022/04/19 01:42:33;;;;;;;38.55;28.20;;;;;;;3.87;100.00;98455.06;2045504;29;20241;-66
2022/04/19 01:43:35;;;;;;;40.58;28.95;;;;;;;3.84;100.00;98450.31;2042511;29;20191;-66
2022/04/19 01:44:38;;;;;;;39.92;28.98;;;;;;;3.87;100.00;98455.06;2050333;29;20256;-66
2022/04/19 01:45:42;;;;;;;37.22;28.63;;;;;;;3.86;100.00;98456.09;2042892;29;20203;-66
2022/04/19 01:46:49;;;;;;;41.17;28.95;;;;;;;3.87;100.00;98451.63;2043324;29;20202;-66
2022/04/19 01:47:51;;;;;;;41.67;28.03;;;;;;;3.87;100.00;98443.72;2042352;29;20213;-65
2022/04/19 01:48:54;;;;;;;37.15;28.83;;;;;;;3.89;100.00;98452.94;2042556;29;20298;-66
2022/04/19 01:49:56;;;;;;;42.53;28.80;;;;;;;3.90;100.00;98451.88;2050411;29;20191;-66
2022/04/19 01:50:58;;;;;;;39.95;28.67;;;;;;;3.91;100.00;98455.31;2049689;28;20692;-65
2022/04/19 01:52:03;;;;;;;41.53;28.60;;;;;;;3.90;100.00;98451.88;2042305;29;20590;-65
2022/04/19 01:53:07;;;;;;;46.63;29.75;;;;;;;3.87;100.00;98444.50;2050249;29;20213;-66
2022/04/19 01:54:12;;;;;;;38.40;30.55;;;;;;;3.87;100.00;98441.84;2042471;29;20235;-66
2022/04/19 01:55:15;;;;;;;37.85;29.23;;;;;;;3.86;100.00;98442.91;2042655;29;20214;-66
2022/04/19 01:56:19;;;;;;;39.97;28.52;;;;;;;3.87;100.00;98446.34;2042961;29;20638;-65
2022/04/19 01:57:29;;;;;;;43.17;30.02;;;;;;;3.87;100.00;98438.44;2050788;29;20225;-66
2022/04/19 01:58:31;;;;;;;42.58;30.70;;;;;;;3.88;100.00;98440.00;2050241;29;20692;-66
2022/04/19 01:59:36;;;;;;;48.00;29.73;;;;;;;3.87;100.00;98431.31;2042494;29;20239;-65
2022/04/19 02:00:47;;;;;;;48.50;29.60;;;;;;;3.87;100.00;98433.94;2043845;29;20210;-66
2022/04/19 02:01:51;;;;;;;45.60;28.60;;;;;;;4.04;100.00;98451.31;2042773;29;20673;-66
2022/04/19 02:02:55;;;;;;;39.67;28.65;;;;;;;4.26;100.00;98451.78;2042357;29;20206;-65
2022/04/19 02:03:56;;;;;;;41.08;27.67;;;;;;;4.32;100.00;98460.47;2042479;29;20198;-65
2022/04/19 02:05:02;;;;;;;43.15;29.38;;;;;;;4.25;100.00;98460.75;2043012;29;20195;-66
2022/04/19 02:06:08;;;;;;;39.28;28.13;;;;;;;4.17;100.00;98450.75;2041764;29;20206;-66
2022/04/19 02:07:14;;;;;;;37.63;27.90;;;;;;;4.13;100.00;98460.28;2059030;28;20559;-66
2022/04/19 02:08:20;;;;;;;40.08;28.80;;;;;;;4.07;100.00;98463.97;2057821;28;20221;-65
2022/04/19 02:09:22;;;;;;;40.67;28.55;;;;;;;4.02;100.00;98467.44;2042774;29;20556;-65
2022/04/19 02:10:25;;;;;;;42.50;28.90;;;;;;;3.99;100.00;98467.94;2042435;29;20207;-65
2022/04/19 02:11:27;;;;;;;41.70;28.92;;;;;;;3.93;100.00;98464.53;2042425;29;20688;-66
2022/04/19 02:12:44;;;;;;;40.45;28.45;;;;;;;3.97;100.00;98464.78;2044271;29;20627;-65
2022/04/19 02:14:10;;;;;;;35.30;26.77;;;;;;;3.97;100.00;98467.44;2029519;29;20667;-65
2022/04/19 02:15:15;;;;;;;42.22;28.48;;;;;;;3.99;100.00;98467.94;2049364;29;20696;-65
2022/04/19 02:16:21;;;;;;;39.67;27.67;;;;;;;3.98;100.00;98469.00;2042605;29;20203;-65
2022/04/19 02:17:23;;;;;;;40.67;27.83;;;;;;;3.98;100.00;98469.00;2050406;29;20194;-66
2022/04/19 02:18:25;;;;;;;36.78;27.33;;;;;;;3.96;100.00;98466.63;2050082;29;20226;-65
2022/04/19 02:19:26;;;;;;;39.47;28.30;;;;;;;4.00;100.00;98474.00;2042258;29;20202;-66
2022/04/19 02:20:30;;;;;;;39.80;28.30;;;;;;;4.05;100.00;98474.00;2050190;29;20197;-65
2022/04/19 02:21:32;;;;;;;41.38;28.10;;;;;;;4.07;100.00;98470.03;2049482;28;20234;-66
2022/04/19 02:22:39;;;;;;;40.58;27.58;;;;;;;4.07;100.00;98475.31;2050333;29;20233;-66
2022/04/19 02:23:44;;;;;;;39.97;26.85;;;;;;;4.14;100.00;98482.97;2050032;29;20282;-66
2022/04/19 02:24:45;;;;;;;38.90;27.50;;;;;;;4.14;100.00;98480.31;2050221;29;20190;-65
2022/04/19 02:25:51;;;;;;;42.03;28.85;;;;;;;4.15;100.00;98485.34;2050049;29;20205;-65
2022/04/19 02:26:54;;;;;;;39.47;29.50;;;;;;;4.19;100.00;98488.25;2042652;29;20191;-65
2022/04/19 02:27:57;;;;;;;43.40;30.23;;;;;;;4.17;100.00;98483.25;2042254;29;20202;-66
2022/04/19 02:29:04;;;;;;;38.92;28.65;;;;;;;4.17;100.00;98479.78;2043237;29;20282;-65
2022/04/19 02:30:13;;;;;;;33.25;25.50;;;;;;;4.11;100.00;98484.31;2042479;29;20800;-65
2022/04/19 02:31:17;;;;;;;40.05;27.67;;;;;;;4.08;100.00;98490.09;2042861;29;20214;-65
2022/04/19 02:32:27;;;;;;;33.13;26.17;;;;;;;4.10;100.00;98500.41;2043406;29;20610;-65
2022/04/19 02:33:29;;;;;;;37.95;26.85;;;;;;;4.08;100.00;98498.00;2042142;29;20325;-65
2022/04/19 02:34:34;;;;;;;37.10;27.08;;;;;;;4.11;100.00;98496.72;2042228;29;20199;-66
2022/04/19 02:35:38;;;;;;;33.72;25.92;;;;;;;4.10;100.00;98495.13;2042528;29;20577;-66
2022/04/19 02:36:41;;;;;;;34.38;26.20;;;;;;;4.14;100.00;98502.25;2041959;29;20358;-66
2022/04/19 02:37:50;;;;;;;37.95;26.73;;;;;;;4.17;100.00;98488.53;2042124;29;20195;-65
2022/04/19 02:38:53;;;;;;;38.20;26.40;;;;;;;4.20;100.00;98492.47;2043051;29;20199;-65
2022/04/19 02:39:55;;;;;;;43.08;24.95;;;;;;;4.27;100.00;98487.69;2042224;29;20187;-65
2022/04/19 02:40:56;;;;;;;29.67;24.27;;;;;;;4.27;100.00;98490.34;2050141;29;20626;-66
2022/04/19 02:42:00;;;;;;;30.63;24.40;;;;;;;4.25;100.00;98495.06;2049888;29;20257;-66
2022/04/19 02:43:01;;;;;;;32.40;24.83;;;;;;;4.23;100.00;98495.34;2042300;29;20233;-65
2022/04/19 02:44:06;;;;;;;34.72;25.88;;;;;;;4.22;100.00;98495.63;2042165;29;20207;-66
2022/04/19 02:45:09;;;;;;;34.25;24.75;;;;;;;4.21;100.00;98494.84;2042334;29;20298;-66
2022/04/19 02:46:14;;;;;;;33.20;25.10;;;;;;;4.20;100.00;98495.09;2042693;29;20673;-66
2022/04/19 02:47:18;;;;;;;33.53;25.42;;;;;;;4.21;100.00;98494.84;2050682;28;20222;-65
2022/04/19 02:48:21;;;;;;;34.17;24.63;;;;;;;4.21;100.00;98499.31;2049837;29;20218;-66
2022/04/19 02:49:25;;;;;;;30.58;24.20;;;;;;;4.23;100.00;98502.47;2042762;29;20191;-66
2022/04/19 02:50:27;;;;;;;38.97;26.30;;;;;;;4.24;100.00;98501.41;2041939;29;20250;-65
2022/04/19 02:51:28;;;;;;;32.92;24.88;;;;;;;4.24;100.00;98504.84;2049454;28;20234;-66
2022/04/19 02:52:30;;;;;;;33.90;24.90;;;;;;;4.24;100.00;98498.78;2049854;29;20609;-66
2022/04/19 02:53:32;;;;;;;32.53;26.35;;;;;;;4.22;100.00;98488.50;2049783;29;20218;-66
2022/04/19 02:54:37;;;;;;;30.77;25.65;;;;;;;4.24;100.00;98491.66;2041965;29;20727;-66
2022/04/19 02:55:38;;;;;;;32.35;26.35;;;;;;;4.27;100.00;98487.69;2042189;29;20205;-66
2022/04/19 02:56:42;;;;;;;34.78;25.65;;;;;;;4.27;100.00;98479.00;2041895;29;20199;-66
2022/04/19 02:57:43;;;;;;;34.97;26.13;;;;;;;4.29;100.00;98482.94;2042120;29;20215;-65
2022/04/19 02:58:45;;;;;;;34.47;26.27;;;;;;;4.28;100.00;98485.84;2049958;29;20286;-66
2022/04/19 02:59:46;;;;;;;35.47;26.08;;;;;;;4.27;100.00;98474.50;2049730;29;20205;-66
2022/04/19 03:00:48;;;;;;;34.93;26.20;;;;;;;4.28;100.00;98475.28;2049837;29;20221;-66
2022/04/19 03:01:49;;;;;;;32.78;25.65;;;;;;;4.29;100.00;98475.00;2049713;29;20570;-67
2022/04/19 03:02:51;;;;;;;32.30;25.33;;;;;;;4.29;100.00;98477.66;2049741;29;20201;-66
2022/04/19 03:03:53;;;;;;;32.35;25.00;;;;;;;4.25;100.00;98476.59;2041851;29;20210;-66
2022/04/19 03:04:55;;;;;;;31.83;25.98;;;;;;;4.26;100.00;98472.91;2041466;29;20287;-65
2022/04/19 03:05:58;;;;;;;38.35;26.45;;;;;;;4.27;100.00;98473.72;2041390;28;20203;-66
2022/04/19 03:07:01;;;;;;;27.63;24.63;;;;;;;4.24;100.00;98470.53;2041979;29;20203;-66
2022/04/19 03:08:03;;;;;;;28.83;23.17;;;;;;;4.24;100.00;98467.09;2041807;29;20195;-66
2022/04/19 03:09:04;;;;;;;21.17;19.27;;;;;;;4.29;100.00;98482.94;2041817;29;20200;-66
2022/04/19 03:10:08;;;;;;;18.65;16.80;;;;;;;4.76;100.00;98508.09;2041761;29;20835;-66
2022/04/19 03:11:10;;;;;;;18.95;17.23;;;;;;;4.82;100.00;98507.81;2041916;29;20207;-66
2022/04/19 03:12:14;;;;;;;18.75;17.15;;;;;;;4.73;100.00;98495.44;2049892;28;20667;-66
2022/04/19 03:13:31;;;;;;;18.42;17.02;;;;;;;4.62;100.00;98496.56;2049674;29;20277;-67
2022/04/19 03:14:32;;;;;;;18.75;17.05;;;;;;;4.54;100.00;98493.41;2042240;29;20624;-67
2022/04/19 03:15:34;;;;;;;19.25;17.75;;;;;;;4.53;100.00;98489.19;2049809;29;20195;-66
2022/04/19 03:16:36;;;;;;;19.40;17.80;;;;;;;4.50;100.00;98495.00;2049723;29;20598;-66
2022/04/19 03:17:40;;;;;;;19.48;17.55;;;;;;;4.60;100.00;98485.44;2041890;29;20559;-66
2022/04/19 03:18:42;;;;;;;18.73;17.13;;;;;;;4.54;100.00;98485.50;2041994;29;20758;-66
2022/04/19 03:19:44;;;;;;;18.98;17.38;;;;;;;4.49;100.00;98493.41;2041708;29;20281;-66
2022/04/19 03:20:46;;;;;;;17.20;15.80;;;;;;;4.49;100.00;98482.84;2049917;29;20194;-66
2022/04/19 03:21:49;;;;;;;17.20;15.80;;;;;;;4.49;100.00;98493.41;2049174;28;20321;-67
2022/04/19 03:28:27;;;;;;;17.67;16.05;;;;;;;4.38;100.00;98485.81;2055027;28;20193;-66
2022/04/19 03:29:29;;;;;;;18.38;16.65;;;;;;;4.57;100.00;98483.34;2041879;29;20202;-66
2022/04/19 03:30:32;;;;;;;18.40;16.70;;;;;;;4.54;100.00;98485.50;2041695;29;20243;-66
2022/04/19 03:31:34;;;;;;;17.73;16.20;;;;;;;4.51;100.00;98479.94;2049617;29;20748;-66
2022/04/19 03:32:37;;;;;;;17.35;15.77;;;;;;;4.44;100.00;98479.47;2049073;29;20577;-66
2022/04/19 03:33:38;;;;;;;18.38;16.77;;;;;;;4.41;100.00;98486.06;2049632;29;20273;-66
2022/04/19 03:34:43;;;;;;;17.88;16.38;;;;;;;4.41;100.00;98485.25;2050144;29;20201;-66
2022/04/19 03:35:44;;;;;;;17.65;16.15;;;;;;;4.47;100.00;98484.97;2049411;29;20222;-66
2022/04/19 03:36:46;;;;;;;17.20;15.63;;;;;;;4.48;100.00;98480.50;2041325;29;20231;-66
2022/04/19 03:37:48;;;;;;;16.77;15.57;;;;;;;4.46;100.00;98482.63;2049571;29;20194;-66
2022/04/19 03:38:53;;;;;;;18.13;16.67;;;;;;;4.43;100.00;98483.13;2049298;28;20190;-66
2022/04/19 03:39:54;;;;;;;19.58;17.83;;;;;;;4.45;100.00;98479.19;2049533;29;20277;-66
2022/04/19 03:40:57;;;;;;;20.43;18.53;;;;;;;4.41;100.00;98474.69;2049459;29;20194;-66
2022/04/19 03:41:58;;;;;;;20.70;18.80;;;;;;;4.37;100.00;98474.47;2049666;29;20597;-66
2022/04/19 03:43:07;;;;;;;18.25;16.45;;;;;;;4.34;100.00;98474.97;2049405;29;20194;-66
2022/04/19 03:44:08;;;;;;;20.90;19.20;;;;;;;4.30;100.00;98476.59;2042569;29;20286;-66
2022/04/19 03:45:12;;;;;;;18.02;16.55;;;;;;;4.29;100.00;98479.50;2049412;29;20209;-66
2022/04/19 03:46:14;;;;;;;18.30;16.40;;;;;;;4.27;100.00;98481.63;2049357;29;20206;-66
2022/04/19 03:47:16;;;;;;;18.10;16.70;;;;;;;4.27;100.00;98477.13;2049443;29;20195;-66
2022/04/19 03:48:17;;;;;;;19.23;17.55;;;;;;;4.26;100.00;98475.56;2049388;29;20293;-67
2022/04/19 03:49:21;;;;;;;20.27;18.53;;;;;;;4.24;100.00;98469.75;2049539;29;20198;-66
2022/04/19 03:50:21;;;;;;;18.90;17.40;;;;;;;4.21;100.00;98470.28;2049376;29;20205;-66
2022/04/19 03:51:23;;;;;;;18.77;17.33;;;;;;;4.20;100.00;98474.00;2048604;28;20226;-66
2022/04/19 03:52:24;;;;;;;17.80;16.40;;;;;;;4.20;100.00;98466.84;2041363;29;20238;-67
2022/04/19 03:53:27;;;;;;;17.80;16.30;;;;;;;4.20;100.00;98477.41;2041474;29;20282;-66
2022/04/19 03:54:29;;;;;;;17.75;16.15;;;;;;;4.20;100.00;98480.06;2041757;29;20210;-66
2022/04/19 03:55:31;;;;;;;18.37;16.73;;;;;;;4.21;100.00;98481.63;2041068;29;20242;-67
2022/04/19 03:56:34;;;;;;;18.90;17.10;;;;;;;4.21;100.00;98480.84;2049349;29;20685;-66
2022/04/19 03:57:36;;;;;;;18.35;16.60;;;;;;;4.20;100.00;98474.78;2041571;29;20195;-67
2022/04/19 03:58:37;;;;;;;19.00;17.20;;;;;;;4.22;100.00;98477.13;2041553;29;20580;-67
2022/04/19 03:59:39;;;;;;;18.45;16.98;;;;;;;4.25;100.00;98479.22;2048949;29;20202;-66
2022/04/19 04:00:44;;;;;;;19.48;17.63;;;;;;;4.24;100.00;98482.94;2041512;29;20627;-66
2022/04/19 04:01:45;;;;;;;19.77;17.77;;;;;;;4.29;100.00;98484.78;2041843;29;20654;-67
2022/04/19 04:02:48;;;;;;;18.48;16.83;;;;;;;4.25;100.00;98487.16;2041430;29;20290;-67
2022/04/19 04:04:04;;;;;;;19.23;17.73;;;;;;;4.27;100.00;98485.06;2043325;29;20190;-66
2022/04/19 04:05:07;;;;;;;19.55;17.77;;;;;;;4.27;100.00;98487.69;2041630;29;20213;-66
2022/04/19 04:06:09;;;;;;;19.20;17.50;;;;;;;4.23;100.00;98482.16;2041151;28;20230;-66
2022/04/19 04:07:13;;;;;;;19.15;17.63;;;;;;;4.24;100.00;98481.09;2041431;29;20207;-66
2022/04/19 04:08:15;;;;;;;19.55;17.75;;;;;;;4.24;100.00;98489.00;2041840;29;20686;-66
2022/04/19 04:09:22;;;;;;;19.27;17.67;;;;;;;4.24;100.00;98480.28;2042342;29;20207;-66
2022/04/19 04:10:26;;;;;;;19.97;18.17;;;;;;;4.36;100.00;98488.72;2041391;29;20187;-67
2022/04/19 04:11:26;;;;;;;21.30;17.92;;;;;;;4.40;100.00;98489.75;2049384;29;20277;-66
2022/04/19 04:12:41;;;;;;;19.40;17.65;;;;;;;4.39;100.00;98482.91;2049093;29;20306;-67
2022/04/19 04:13:46;;;;;;;20.15;18.17;;;;;;;4.36;100.00;98483.44;2042149;29;20191;-66
2022/04/19 04:14:48;;;;;;;20.35;18.42;;;;;;;4.33;100.00;98483.97;2041527;29;20199;-67
2022/04/19 04:15:49;;;;;;;19.17;17.58;;;;;;;4.33;100.00;98470.75;2041458;29;20210;-66
2022/04/19 04:16:51;;;;;;;20.20;18.40;;;;;;;4.35;100.00;98475.78;2041341;29;20191;-67
2022/04/19 04:17:54;;;;;;;19.38;17.70;;;;;;;4.35;100.00;98473.16;2049207;29;20202;-66
2022/04/19 04:18:56;;;;;;;18.70;17.15;;;;;;;4.35;100.00;98476.59;2049344;29;20737;-66
2022/04/19 04:19:58;;;;;;;20.75;18.75;;;;;;;4.36;100.00;98475.53;2049253;29;20657;-66
2022/04/19 04:21:01;;;;;;;19.88;18.10;;;;;;;4.35;100.00;98471.31;2040984;29;20195;-67
2022/04/19 04:22:04;;;;;;;18.75;17.25;;;;;;;4.36;100.00;98472.09;2049200;29;20210;-66
2022/04/19 04:23:06;;;;;;;19.52;17.73;;;;;;;4.34;100.00;98474.97;2049210;29;20569;-67
2022/04/19 04:24:07;;;;;;;19.70;17.95;;;;;;;4.34;100.00;98467.06;2049206;29;20233;-66
2022/04/19 04:25:16;;;;;;;20.17;18.35;;;;;;;4.35;100.00;98466.03;2049237;29;20198;-66
2022/04/19 04:26:17;;;;;;;19.42;17.83;;;;;;;4.39;100.00;98468.91;2049326;29;20693;-66
2022/04/19 04:27:19;;;;;;;19.90;18.20;;;;;;;4.42;100.00;98471.78;2049161;29;20567;-66
2022/04/19 04:28:22;;;;;;;20.10;18.10;;;;;;;4.45;100.00;98463.34;2041481;29;20222;-66
2022/04/19 04:29:28;;;;;;;19.73;17.95;;;;;;;4.47;100.00;98477.06;2041505;29;20282;-66
2022/04/19 04:30:28;;;;;;;20.30;18.60;;;;;;;4.45;100.00;98484.47;2041397;29;20233;-67
2022/04/19 04:31:35;;;;;;;20.23;18.42;;;;;;;4.42;100.00;98477.06;2049198;29;20315;-66
2022/04/19 04:32:40;;;;;;;19.98;18.20;;;;;;;4.44;100.00;98485.53;2041569;29;20221;-66
2022/04/19 04:33:42;;;;;;;19.52;17.88;;;;;;;4.43;100.00;98485.78;2049298;29;20194;-67
2022/04/19 04:34:44;;;;;;;20.70;18.63;;;;;;;4.45;100.00;98479.19;2049112;29;20301;-66
2022/04/19 04:35:47;;;;;;;20.23;18.42;;;;;;;4.51;100.00;98486.00;2041477;29;20627;-66
2022/04/19 04:36:48;;;;;;;19.50;17.85;;;;;;;4.57;100.00;98486.00;2040992;29;20269;-66
2022/04/19 04:37:56;;;;;;;19.75;17.95;;;;;;;4.59;100.00;98486.50;2049469;29;20189;-66
2022/04/19 04:38:58;;;;;;;23.83;18.45;;;;;;;4.54;100.00;98490.78;2049121;29;20353;-66
2022/04/19 04:40:16;;;;;;;20.85;18.92;;;;;;;4.51;100.00;98485.22;2042996;29;20757;-66
2022/04/19 04:41:38;;;;;;;20.05;18.20;;;;;;;4.64;100.00;98489.16;2049660;29;20259;-66
2022/04/19 04:42:41;;;;;;;20.23;18.58;;;;;;;4.62;100.00;98481.50;2049325;29;20206;-66
2022/04/19 04:43:49;;;;;;;20.83;19.02;;;;;;;4.62;100.00;98484.13;2041845;29;20227;-66
2022/04/19 04:44:50;;;;;;;21.48;19.25;;;;;;;4.58;100.00;98484.94;2048519;28;20580;-67
2022/04/19 04:49:48;;;;;;;19.35;17.70;;;;;;;4.49;100.00;98477.56;2049077;29;20233;-66
2022/04/19 04:50:56;;;;;;;20.20;18.52;;;;;;;4.44;100.00;98474.97;2041696;28;20187;-66
2022/04/19 04:51:58;;;;;;;20.02;18.33;;;;;;;4.35;100.00;98481.06;2050761;28;20207;-66
2022/04/19 04:53:01;;;;;;;19.77;18.08;;;;;;;4.26;100.00;98475.56;2058676;28;20244;-67
2022/04/19 04:54:03;;;;;;;21.13;19.13;;;;;;;4.21;100.00;98480.84;2058787;28;20206;-67
2022/04/19 04:55:07;;;;;;;19.65;18.05;;;;;;;4.29;100.00;98477.66;2050888;28;20190;-66
2022/04/19 04:56:11;;;;;;;19.55;18.05;;;;;;;4.18;100.00;98476.13;2051113;28;20205;-66
2022/04/19 04:57:13;;;;;;;19.98;17.98;;;;;;;4.21;100.00;98478.19;2049989;28;20206;-66
2022/04/19 04:58:14;;;;;;;19.67;18.05;;;;;;;4.19;100.00;98472.41;2050724;28;20194;-66
2022/04/19 04:59:17;;;;;;;21.23;19.03;;;;;;;4.29;100.00;98476.88;2050667;29;20293;-66
2022/04/19 05:00:18;;;;;;;20.90;18.90;;;;;;;4.31;100.00;98475.53;2050800;28;20760;-66
2022/04/19 05:01:27;;;;;;;20.20;18.48;;;;;;;4.27;100.00;98468.44;2051359;28;20186;-66
2022/04/19 05:02:28;;;;;;;21.02;19.00;;;;;;;4.23;100.00;98468.94;2050889;28;20229;-66
2022/04/19 05:03:29;;;;;;;20.83;18.80;;;;;;;4.28;100.00;98470.00;2058822;28;20193;-66
2022/04/19 05:04:33;;;;;;;20.45;18.75;;;;;;;4.32;100.00;98466.53;2058574;28;20709;-66
2022/04/19 05:05:34;;;;;;;21.77;19.67;;;;;;;4.23;100.00;98465.50;2050839;28;20205;-66
2022/04/19 05:06:37;;;;;;;20.17;18.30;;;;;;;4.19;100.00;98462.63;2044510;29;20290;-66